sensor_id;sensor_type;location;lat;lon;timestamp;temperature;humidity
8172;DHT22;4127;47.908;10.850;2022-09-29T00:03:51;7.70;99.90
8172;DHT22;4127;47.908;10.850;2022-09-29T00:06:18;7.60;99.90
8172;DHT22;4127;47.908;10.850;2022-09-29T00:08:45;7.60;99.90
8172;DHT22;4127;47.908;10.850;2022-09-29T00:11:15;7.60;99.90
8172;DHT22;4127;47.908;10.850;2022-09-29T00:13:43;7.60;99.90
8172;DHT22;4127;47.908;10.850;2022-09-29T00:16:11;7.50;99.90
8172;DHT22;4127;47.908;10.850;2022-09-29T00:18:38;7.50;99.90
8172;DHT22;4127;47.908;10.850;2022-09-29T00:21:12;7.50;99.90
8172;DHT22;4127;47.908;10.850;2022-09-29T00:23:39;7.40;99.90
8172;DHT22;4127;47.908;10.850;2022-09-29T00:26:12;7.40;99.90
8172;DHT22;4127;47.908;10.850;2022-09-29T00:28:44;7.30;99.90
8172;DHT22;4127;47.908;10.850;2022-09-29T00:31:11;7.30;99.90
8172;DHT22;4127;47.908;10.850;2022-09-29T00:33:39;7.30;99.90
8172;DHT22;4127;47.908;10.850;2022-09-29T00:36:09;7.30;99.90
8172;DHT22;4127;47.908;10.850;2022-09-29T00:38:38;7.30;99.90
8172;DHT22;4127;47.908;10.850;2022-09-29T00:41:06;7.30;99.90
8172;DHT22;4127;47.908;10.850;2022-09-29T00:43:50;7.10;99.90
8172;DHT22;4127;47.908;10.850;2022-09-29T00:49:00;7.00;99.90
8172;DHT22;4127;47.908;10.850;2022-09-29T00:51:29;6.90;99.90
8172;DHT22;4127;47.908;10.850;2022-09-29T00:53:58;7.00;99.90
8172;DHT22;4127;47.908;10.850;2022-09-29T00:56:25;7.10;99.90
8172;DHT22;4127;47.908;10.850;2022-09-29T00:58:56;7.10;99.90
8172;DHT22;4127;47.908;10.850;2022-09-29T01:01:29;7.10;99.90
8172;DHT22;4127;47.908;10.850;2022-09-29T01:04:16;7.10;99.90
8172;DHT22;4127;47.908;10.850;2022-09-29T01:06:48;6.90;99.90
8172;DHT22;4127;47.908;10.850;2022-09-29T01:09:18;6.90;99.90
8172;DHT22;4127;47.908;10.850;2022-09-29T01:11:45;6.80;99.90
8172;DHT22;4127;47.908;10.850;2022-09-29T01:14:13;6.70;99.90
8172;DHT22;4127;47.908;10.850;2022-09-29T01:16:41;6.70;99.90
8172;DHT22;4127;47.908;10.850;2022-09-29T01:19:13;6.70;99.90
8172;DHT22;4127;47.908;10.850;2022-09-29T01:30:19;6.80;99.90
8172;DHT22;4127;47.908;10.850;2022-09-29T01:35:47;6.80;99.90
8172;DHT22;4127;47.908;10.850;2022-09-29T01:38:24;6.80;99.90
8172;DHT22;4127;47.908;10.850;2022-09-29T01:43:39;6.70;99.90
8172;DHT22;4127;47.908;10.850;2022-09-29T01:46:55;6.60;99.90
8172;DHT22;4127;47.908;10.850;2022-09-29T01:49:03;6.60;99.90
8172;DHT22;4127;47.908;10.850;2022-09-29T01:51:39;6.60;99.90
8172;DHT22;4127;47.908;10.850;2022-09-29T01:54:17;6.50;99.90
8172;DHT22;4127;47.908;10.850;2022-09-29T01:56:52;6.60;99.90
8172;DHT22;4127;47.908;10.850;2022-09-29T01:59:34;6.60;99.90
8172;DHT22;4127;47.908;10.850;2022-09-29T02:02:07;6.60;99.90
8172;DHT22;4127;47.908;10.850;2022-09-29T02:04:43;6.60;99.90
8172;DHT22;4127;47.908;10.850;2022-09-29T02:07:36;6.70;99.90
8172;DHT22;4127;47.908;10.850;2022-09-29T02:10:11;6.60;99.90
8172;DHT22;4127;47.908;10.850;2022-09-29T02:12:39;6.60;99.90
8172;DHT22;4127;47.908;10.850;2022-09-29T02:15:08;6.60;99.90
8172;DHT22;4127;47.908;10.850;2022-09-29T02:17:41;6.50;99.90
8172;DHT22;4127;47.908;10.850;2022-09-29T02:20:10;6.60;99.90
8172;DHT22;4127;47.908;10.850;2022-09-29T02:22:38;6.60;99.90
8172;DHT22;4127;47.908;10.850;2022-09-29T02:25:07;6.60;99.90
8172;DHT22;4127;47.908;10.850;2022-09-29T02:27:35;6.60;99.90
8172;DHT22;4127;47.908;10.850;2022-09-29T02:30:02;6.70;99.90
8172;DHT22;4127;47.908;10.850;2022-09-29T02:32:30;6.70;99.90
8172;DHT22;4127;47.908;10.850;2022-09-29T02:34:58;6.70;99.90
8172;DHT22;4127;47.908;10.850;2022-09-29T02:37:47;6.70;99.90
8172;DHT22;4127;47.908;10.850;2022-09-29T02:43:14;6.80;99.90
8172;DHT22;4127;47.908;10.850;2022-09-29T02:48:44;6.70;99.90
8172;DHT22;4127;47.908;10.850;2022-09-29T02:51:49;6.70;99.90
8172;DHT22;4127;47.908;10.850;2022-09-29T02:57:31;6.70;99.90
8172;DHT22;4127;47.908;10.850;2022-09-29T03:00:11;6.70;99.90
8172;DHT22;4127;47.908;10.850;2022-09-29T03:02:40;6.70;99.90
8172;DHT22;4127;47.908;10.850;2022-09-29T03:05:13;6.70;99.90
8172;DHT22;4127;47.908;10.850;2022-09-29T03:07:41;6.70;99.90
8172;DHT22;4127;47.908;10.850;2022-09-29T03:10:10;6.80;99.90
8172;DHT22;4127;47.908;10.850;2022-09-29T03:12:37;6.90;99.90
8172;DHT22;4127;47.908;10.850;2022-09-29T03:15:05;6.90;99.90
8172;DHT22;4127;47.908;10.850;2022-09-29T03:17:33;6.90;99.90
8172;DHT22;4127;47.908;10.850;2022-09-29T03:20:00;6.90;99.90
8172;DHT22;4127;47.908;10.850;2022-09-29T03:22:27;6.90;99.90
8172;DHT22;4127;47.908;10.850;2022-09-29T03:24:54;7.00;99.90
8172;DHT22;4127;47.908;10.850;2022-09-29T03:27:21;6.90;99.90
8172;DHT22;4127;47.908;10.850;2022-09-29T03:29:47;7.00;99.90
8172;DHT22;4127;47.908;10.850;2022-09-29T03:32:16;7.00;99.90
8172;DHT22;4127;47.908;10.850;2022-09-29T03:34:43;7.10;99.90
8172;DHT22;4127;47.908;10.850;2022-09-29T03:37:10;7.00;99.90
8172;DHT22;4127;47.908;10.850;2022-09-29T03:39:36;7.20;99.90
8172;DHT22;4127;47.908;10.850;2022-09-29T03:42:04;7.20;99.90
8172;DHT22;4127;47.908;10.850;2022-09-29T03:44:30;7.20;99.90
8172;DHT22;4127;47.908;10.850;2022-09-29T03:46:57;7.30;99.90
8172;DHT22;4127;47.908;10.850;2022-09-29T03:49:24;7.30;99.90
8172;DHT22;4127;47.908;10.850;2022-09-29T03:51:51;7.30;99.90
8172;DHT22;4127;47.908;10.850;2022-09-29T03:54:18;7.20;99.90
8172;DHT22;4127;47.908;10.850;2022-09-29T03:56:45;7.20;99.90
8172;DHT22;4127;47.908;10.850;2022-09-29T03:59:12;7.20;99.90
8172;DHT22;4127;47.908;10.850;2022-09-29T04:01:40;7.30;99.90
8172;DHT22;4127;47.908;10.850;2022-09-29T04:04:08;7.30;99.90
8172;DHT22;4127;47.908;10.850;2022-09-29T04:06:35;7.40;99.90
8172;DHT22;4127;47.908;10.850;2022-09-29T04:09:02;7.50;99.90
8172;DHT22;4127;47.908;10.850;2022-09-29T04:11:29;7.40;99.90
8172;DHT22;4127;47.908;10.850;2022-09-29T04:13:56;7.30;99.90
8172;DHT22;4127;47.908;10.850;2022-09-29T04:16:23;7.30;99.90
8172;DHT22;4127;47.908;10.850;2022-09-29T04:18:50;7.30;99.90
8172;DHT22;4127;47.908;10.850;2022-09-29T04:21:17;7.30;99.90
8172;DHT22;4127;47.908;10.850;2022-09-29T04:23:44;7.20;99.90
8172;DHT22;4127;47.908;10.850;2022-09-29T04:26:11;7.10;99.90
8172;DHT22;4127;47.908;10.850;2022-09-29T04:28:38;7.10;99.90
8172;DHT22;4127;47.908;10.850;2022-09-29T04:31:05;7.10;99.90
8172;DHT22;4127;47.908;10.850;2022-09-29T04:33:33;7.20;99.90
8172;DHT22;4127;47.908;10.850;2022-09-29T04:36:00;7.20;99.90
8172;DHT22;4127;47.908;10.850;2022-09-29T04:38:27;7.20;99.90
8172;DHT22;4127;47.908;10.850;2022-09-29T04:40:54;7.00;99.90
8172;DHT22;4127;47.908;10.850;2022-09-29T04:43:21;7.00;99.90
8172;DHT22;4127;47.908;10.850;2022-09-29T04:45:48;6.90;99.90
8172;DHT22;4127;47.908;10.850;2022-09-29T04:48:15;7.00;99.90
8172;DHT22;4127;47.908;10.850;2022-09-29T04:50:42;7.00;99.90
8172;DHT22;4127;47.908;10.850;2022-09-29T04:53:10;7.00;99.90
8172;DHT22;4127;47.908;10.850;2022-09-29T04:55:37;7.10;99.90
8172;DHT22;4127;47.908;10.850;2022-09-29T04:58:04;7.10;99.90
8172;DHT22;4127;47.908;10.850;2022-09-29T05:00:31;7.10;99.90
8172;DHT22;4127;47.908;10.850;2022-09-29T05:02:59;7.20;99.90
8172;DHT22;4127;47.908;10.850;2022-09-29T05:05:26;7.10;99.90
8172;DHT22;4127;47.908;10.850;2022-09-29T05:07:53;7.10;99.90
8172;DHT22;4127;47.908;10.850;2022-09-29T05:10:20;7.10;99.90
8172;DHT22;4127;47.908;10.850;2022-09-29T05:12:49;7.10;99.90
8172;DHT22;4127;47.908;10.850;2022-09-29T05:15:17;7.10;99.90
8172;DHT22;4127;47.908;10.850;2022-09-29T05:17:51;7.10;99.90
8172;DHT22;4127;47.908;10.850;2022-09-29T05:20:18;7.20;99.90
8172;DHT22;4127;47.908;10.850;2022-09-29T05:22:45;7.20;99.90
8172;DHT22;4127;47.908;10.850;2022-09-29T05:25:12;7.20;99.90
8172;DHT22;4127;47.908;10.850;2022-09-29T05:27:38;7.00;99.90
8172;DHT22;4127;47.908;10.850;2022-09-29T05:30:06;6.90;99.90
8172;DHT22;4127;47.908;10.850;2022-09-29T05:32:33;6.90;99.90
8172;DHT22;4127;47.908;10.850;2022-09-29T05:34:59;7.00;99.90
8172;DHT22;4127;47.908;10.850;2022-09-29T05:37:26;7.10;99.90
8172;DHT22;4127;47.908;10.850;2022-09-29T05:39:53;7.20;99.90
8172;DHT22;4127;47.908;10.850;2022-09-29T05:42:20;7.20;99.90
8172;DHT22;4127;47.908;10.850;2022-09-29T05:44:47;7.20;99.90
8172;DHT22;4127;47.908;10.850;2022-09-29T05:47:13;7.20;99.90
8172;DHT22;4127;47.908;10.850;2022-09-29T05:49:40;7.20;99.90
8172;DHT22;4127;47.908;10.850;2022-09-29T05:52:07;7.30;99.90
8172;DHT22;4127;47.908;10.850;2022-09-29T05:54:34;7.20;99.90
8172;DHT22;4127;47.908;10.850;2022-09-29T05:57:15;7.10;99.90
8172;DHT22;4127;47.908;10.850;2022-09-29T06:00:10;7.20;99.90
8172;DHT22;4127;47.908;10.850;2022-09-29T06:03:37;7.20;99.90
8172;DHT22;4127;47.908;10.850;2022-09-29T06:06:33;7.20;99.90
8172;DHT22;4127;47.908;10.850;2022-09-29T06:09:07;7.20;99.90
8172;DHT22;4127;47.908;10.850;2022-09-29T06:11:39;7.30;99.90
8172;DHT22;4127;47.908;10.850;2022-09-29T06:14:11;7.20;99.90
8172;DHT22;4127;47.908;10.850;2022-09-29T06:17:05;7.20;99.90
8172;DHT22;4127;47.908;10.850;2022-09-29T06:20:24;7.20;99.90
8172;DHT22;4127;47.908;10.850;2022-09-29T06:23:15;7.30;99.90
8172;DHT22;4127;47.908;10.850;2022-09-29T06:26:40;7.30;99.90
8172;DHT22;4127;47.908;10.850;2022-09-29T06:29:30;7.30;99.90
8172;DHT22;4127;47.908;10.850;2022-09-29T06:32:05;7.40;99.90
8172;DHT22;4127;47.908;10.850;2022-09-29T06:34:52;7.40;99.90
8172;DHT22;4127;47.908;10.850;2022-09-29T06:37:53;7.40;99.90
8172;DHT22;4127;47.908;10.850;2022-09-29T06:40:28;7.40;99.90
8172;DHT22;4127;47.908;10.850;2022-09-29T06:43:15;7.50;99.90
8172;DHT22;4127;47.908;10.850;2022-09-29T06:45:53;7.40;99.90
8172;DHT22;4127;47.908;10.850;2022-09-29T06:48:36;7.40;99.90
8172;DHT22;4127;47.908;10.850;2022-09-29T06:51:07;7.50;99.90
8172;DHT22;4127;47.908;10.850;2022-09-29T06:53:41;7.60;99.90
8172;DHT22;4127;47.908;10.850;2022-09-29T06:56:08;7.70;99.90
8172;DHT22;4127;47.908;10.850;2022-09-29T06:58:36;7.80;99.90
8172;DHT22;4127;47.908;10.850;2022-09-29T07:01:09;8.00;99.90
8172;DHT22;4127;47.908;10.850;2022-09-29T07:03:45;8.10;99.90
8172;DHT22;4127;47.908;10.850;2022-09-29T07:06:12;8.00;99.90
8172;DHT22;4127;47.908;10.850;2022-09-29T07:08:46;8.10;99.90
8172;DHT22;4127;47.908;10.850;2022-09-29T07:11:16;8.20;99.90
8172;DHT22;4127;47.908;10.850;2022-09-29T07:13:45;8.20;99.90
8172;DHT22;4127;47.908;10.850;2022-09-29T07:16:12;8.20;99.90
8172;DHT22;4127;47.908;10.850;2022-09-29T07:18:41;8.20;99.90
8172;DHT22;4127;47.908;10.850;2022-09-29T07:21:10;8.20;99.90
8172;DHT22;4127;47.908;10.850;2022-09-29T07:23:37;8.20;99.90
8172;DHT22;4127;47.908;10.850;2022-09-29T07:26:05;8.10;99.90
8172;DHT22;4127;47.908;10.850;2022-09-29T07:28:33;8.20;99.90
8172;DHT22;4127;47.908;10.850;2022-09-29T07:31:08;8.20;99.90
8172;DHT22;4127;47.908;10.850;2022-09-29T07:33:41;8.10;99.90
8172;DHT22;4127;47.908;10.850;2022-09-29T07:36:12;8.10;99.90
8172;DHT22;4127;47.908;10.850;2022-09-29T07:38:40;8.20;99.90
8172;DHT22;4127;47.908;10.850;2022-09-29T07:41:08;8.30;99.90
8172;DHT22;4127;47.908;10.850;2022-09-29T07:43:37;8.40;99.90
8172;DHT22;4127;47.908;10.850;2022-09-29T07:46:04;8.50;99.90
8172;DHT22;4127;47.908;10.850;2022-09-29T07:48:32;8.50;99.90
8172;DHT22;4127;47.908;10.850;2022-09-29T07:51:01;8.60;99.90
8172;DHT22;4127;47.908;10.850;2022-09-29T07:53:29;8.40;99.90
8172;DHT22;4127;47.908;10.850;2022-09-29T07:56:04;8.70;99.90
8172;DHT22;4127;47.908;10.850;2022-09-29T07:58:32;8.50;99.90
8172;DHT22;4127;47.908;10.850;2022-09-29T08:01:00;8.60;99.90
8172;DHT22;4127;47.908;10.850;2022-09-29T08:03:29;8.60;99.90
8172;DHT22;4127;47.908;10.850;2022-09-29T08:05:56;8.60;99.90
8172;DHT22;4127;47.908;10.850;2022-09-29T08:08:24;8.70;99.90
8172;DHT22;4127;47.908;10.850;2022-09-29T08:10:51;8.90;99.90
8172;DHT22;4127;47.908;10.850;2022-09-29T08:13:19;8.80;99.90
8172;DHT22;4127;47.908;10.850;2022-09-29T08:15:46;8.80;99.90
8172;DHT22;4127;47.908;10.850;2022-09-29T08:18:13;8.80;99.90
8172;DHT22;4127;47.908;10.850;2022-09-29T08:20:39;8.90;99.90
8172;DHT22;4127;47.908;10.850;2022-09-29T08:23:06;9.00;99.90
8172;DHT22;4127;47.908;10.850;2022-09-29T08:25:33;9.10;99.90
8172;DHT22;4127;47.908;10.850;2022-09-29T08:28:01;9.10;99.90
8172;DHT22;4127;47.908;10.850;2022-09-29T08:30:28;9.20;99.90
8172;DHT22;4127;47.908;10.850;2022-09-29T08:32:55;9.10;99.90
8172;DHT22;4127;47.908;10.850;2022-09-29T08:35:22;9.10;99.90
8172;DHT22;4127;47.908;10.850;2022-09-29T08:37:49;8.90;99.90
8172;DHT22;4127;47.908;10.850;2022-09-29T08:40:16;8.90;99.90
8172;DHT22;4127;47.908;10.850;2022-09-29T08:45:27;9.00;99.90
8172;DHT22;4127;47.908;10.850;2022-09-29T08:48:04;9.10;99.90
8172;DHT22;4127;47.908;10.850;2022-09-29T08:50:55;9.20;99.90
8172;DHT22;4127;47.908;10.850;2022-09-29T08:53:25;9.10;99.90
8172;DHT22;4127;47.908;10.850;2022-09-29T08:56:07;9.00;99.90
8172;DHT22;4127;47.908;10.850;2022-09-29T08:58:37;8.90;99.90
8172;DHT22;4127;47.908;10.850;2022-09-29T09:04:23;8.90;99.90
8172;DHT22;4127;47.908;10.850;2022-09-29T09:10:07;9.10;99.90
8172;DHT22;4127;47.908;10.850;2022-09-29T09:21:13;9.00;99.90
8172;DHT22;4127;47.908;10.850;2022-09-29T09:23:56;9.10;99.90
8172;DHT22;4127;47.908;10.850;2022-09-29T09:26:44;9.00;99.90
8172;DHT22;4127;47.908;10.850;2022-09-29T09:29:56;9.10;99.90
8172;DHT22;4127;47.908;10.850;2022-09-29T09:32:26;9.10;99.90
8172;DHT22;4127;47.908;10.850;2022-09-29T09:34:58;9.10;99.90
8172;DHT22;4127;47.908;10.850;2022-09-29T09:37:48;9.10;99.90
8172;DHT22;4127;47.908;10.850;2022-09-29T09:40:22;9.20;99.90
8172;DHT22;4127;47.908;10.850;2022-09-29T09:42:59;9.10;99.90
8172;DHT22;4127;47.908;10.850;2022-09-29T09:45:38;9.30;99.90
8172;DHT22;4127;47.908;10.850;2022-09-29T09:48:24;9.10;99.90
8172;DHT22;4127;47.908;10.850;2022-09-29T09:51:00;9.10;99.90
8172;DHT22;4127;47.908;10.850;2022-09-29T09:53:30;9.20;99.90
8172;DHT22;4127;47.908;10.850;2022-09-29T09:56:34;9.50;99.90
8172;DHT22;4127;47.908;10.850;2022-09-29T09:59:15;9.40;99.90
8172;DHT22;4127;47.908;10.850;2022-09-29T10:01:45;9.30;99.90
8172;DHT22;4127;47.908;10.850;2022-09-29T10:04:12;9.40;99.90
8172;DHT22;4127;47.908;10.850;2022-09-29T10:06:40;9.40;99.90
8172;DHT22;4127;47.908;10.850;2022-09-29T10:09:13;9.50;99.90
8172;DHT22;4127;47.908;10.850;2022-09-29T10:11:41;9.60;99.90
8172;DHT22;4127;47.908;10.850;2022-09-29T10:14:22;9.60;99.90
8172;DHT22;4127;47.908;10.850;2022-09-29T10:17:04;9.50;99.90
8172;DHT22;4127;47.908;10.850;2022-09-29T10:20:04;9.50;99.90
8172;DHT22;4127;47.908;10.850;2022-09-29T10:22:32;9.60;99.90
8172;DHT22;4127;47.908;10.850;2022-09-29T10:27:43;9.30;99.90
8172;DHT22;4127;47.908;10.850;2022-09-29T10:30:34;9.30;99.90
8172;DHT22;4127;47.908;10.850;2022-09-29T10:33:03;9.60;99.90
8172;DHT22;4127;47.908;10.850;2022-09-29T10:35:37;9.80;99.90
8172;DHT22;4127;47.908;10.850;2022-09-29T10:40:32;9.60;99.90
8172;DHT22;4127;47.908;10.850;2022-09-29T10:43:22;9.80;99.90
8172;DHT22;4127;47.908;10.850;2022-09-29T10:45:50;10.00;99.90
8172;DHT22;4127;47.908;10.850;2022-09-29T10:48:19;10.00;99.90
8172;DHT22;4127;47.908;10.850;2022-09-29T10:50:56;9.80;99.90
8172;DHT22;4127;47.908;10.850;2022-09-29T10:53:41;9.60;99.90
8172;DHT22;4127;47.908;10.850;2022-09-29T10:56:16;9.70;99.90
8172;DHT22;4127;47.908;10.850;2022-09-29T10:58:54;10.00;99.90
8172;DHT22;4127;47.908;10.850;2022-09-29T11:01:34;9.90;99.90
8172;DHT22;4127;47.908;10.850;2022-09-29T11:04:35;10.00;99.90
8172;DHT22;4127;47.908;10.850;2022-09-29T11:07:10;10.10;99.90
8172;DHT22;4127;47.908;10.850;2022-09-29T11:09:42;10.20;99.90
8172;DHT22;4127;47.908;10.850;2022-09-29T11:12:28;10.40;99.90
8172;DHT22;4127;47.908;10.850;2022-09-29T11:14:58;10.40;99.90
8172;DHT22;4127;47.908;10.850;2022-09-29T11:17:31;10.40;99.90
8172;DHT22;4127;47.908;10.850;2022-09-29T11:20:05;10.50;99.90
8172;DHT22;4127;47.908;10.850;2022-09-29T11:22:53;10.70;99.90
8172;DHT22;4127;47.908;10.850;2022-09-29T11:39:07;10.80;99.90
8172;DHT22;4127;47.908;10.850;2022-09-29T11:47:02;10.90;99.90
8172;DHT22;4127;47.908;10.850;2022-09-29T12:04:37;10.80;99.90
8172;DHT22;4127;47.908;10.850;2022-09-29T12:12:44;10.70;99.90
8172;DHT22;4127;47.908;10.850;2022-09-29T12:17:51;10.50;99.90
8172;DHT22;4127;47.908;10.850;2022-09-29T12:20:30;10.60;99.90
8172;DHT22;4127;47.908;10.850;2022-09-29T12:23:02;10.70;99.90
8172;DHT22;4127;47.908;10.850;2022-09-29T12:25:34;10.90;99.90
8172;DHT22;4127;47.908;10.850;2022-09-29T12:28:06;10.90;99.90
8172;DHT22;4127;47.908;10.850;2022-09-29T12:30:51;10.90;99.90
8172;DHT22;4127;47.908;10.850;2022-09-29T12:36:20;11.00;99.90
8172;DHT22;4127;47.908;10.850;2022-09-29T12:50:39;10.80;99.90
8172;DHT22;4127;47.908;10.850;2022-09-29T12:53:30;10.70;99.90
8172;DHT22;4127;47.908;10.850;2022-09-29T12:56:23;10.70;99.90
8172;DHT22;4127;47.908;10.850;2022-09-29T13:01:40;10.80;99.90
8172;DHT22;4127;47.908;10.850;2022-09-29T13:09:42;10.80;99.90
8172;DHT22;4127;47.908;10.850;2022-09-29T13:12:34;10.80;99.90
8172;DHT22;4127;47.908;10.850;2022-09-29T13:18:51;10.90;99.90
8172;DHT22;4127;47.908;10.850;2022-09-29T13:27:32;11.00;99.90
8172;DHT22;4127;47.908;10.850;2022-09-29T13:30:15;10.90;99.90
8172;DHT22;4127;47.908;10.850;2022-09-29T13:33:09;10.90;99.90
8172;DHT22;4127;47.908;10.850;2022-09-29T13:35:39;10.90;99.90
8172;DHT22;4127;47.908;10.850;2022-09-29T13:38:23;11.00;99.90
8172;DHT22;4127;47.908;10.850;2022-09-29T13:49:12;11.20;99.90
8172;DHT22;4127;47.908;10.850;2022-09-29T13:51:59;11.20;99.90
8172;DHT22;4127;47.908;10.850;2022-09-29T13:54:41;11.20;99.90
8172;DHT22;4127;47.908;10.850;2022-09-29T13:59:40;11.20;99.90
8172;DHT22;4127;47.908;10.850;2022-09-29T14:05:05;11.00;99.90
8172;DHT22;4127;47.908;10.850;2022-09-29T14:10:41;10.90;99.90
8172;DHT22;4127;47.908;10.850;2022-09-29T14:15:56;10.90;99.90
8172;DHT22;4127;47.908;10.850;2022-09-29T14:21:44;11.00;99.90
8172;DHT22;4127;47.908;10.850;2022-09-29T14:29:25;11.00;99.90
8172;DHT22;4127;47.908;10.850;2022-09-29T14:31:55;11.00;99.90
8172;DHT22;4127;47.908;10.850;2022-09-29T14:34:26;11.00;99.90
8172;DHT22;4127;47.908;10.850;2022-09-29T14:36:54;11.00;99.90
8172;DHT22;4127;47.908;10.850;2022-09-29T14:39:23;10.90;99.90
8172;DHT22;4127;47.908;10.850;2022-09-29T14:41:52;10.90;99.90
8172;DHT22;4127;47.908;10.850;2022-09-29T14:53:08;10.90;99.90
8172;DHT22;4127;47.908;10.850;2022-09-29T15:03:45;10.80;99.90
8172;DHT22;4127;47.908;10.850;2022-09-29T15:06:24;10.80;99.90
8172;DHT22;4127;47.908;10.850;2022-09-29T15:08:57;10.70;99.90
8172;DHT22;4127;47.908;10.850;2022-09-29T15:11:43;10.60;99.90
8172;DHT22;4127;47.908;10.850;2022-09-29T15:14:26;10.60;99.90
8172;DHT22;4127;47.908;10.850;2022-09-29T15:25:32;10.60;99.90
8172;DHT22;4127;47.908;10.850;2022-09-29T15:28:16;10.70;99.90
8172;DHT22;4127;47.908;10.850;2022-09-29T15:30:44;10.60;99.90
8172;DHT22;4127;47.908;10.850;2022-09-29T15:33:35;10.70;99.90
8172;DHT22;4127;47.908;10.850;2022-09-29T15:38:37;10.70;99.90
8172;DHT22;4127;47.908;10.850;2022-09-29T15:43:43;10.80;99.90
8172;DHT22;4127;47.908;10.850;2022-09-29T15:46:35;10.70;99.90
8172;DHT22;4127;47.908;10.850;2022-09-29T15:51:30;10.70;99.90
8172;DHT22;4127;47.908;10.850;2022-09-29T15:53:57;10.70;99.90
8172;DHT22;4127;47.908;10.850;2022-09-29T15:56:31;10.60;99.90
8172;DHT22;4127;47.908;10.850;2022-09-29T15:58:57;10.70;99.90
8172;DHT22;4127;47.908;10.850;2022-09-29T16:01:25;10.60;99.90
8172;DHT22;4127;47.908;10.850;2022-09-29T16:03:56;10.50;99.90
8172;DHT22;4127;47.908;10.850;2022-09-29T16:06:30;10.50;99.90
8172;DHT22;4127;47.908;10.850;2022-09-29T16:09:00;10.50;99.90
8172;DHT22;4127;47.908;10.850;2022-09-29T16:11:32;10.40;99.90
8172;DHT22;4127;47.908;10.850;2022-09-29T16:14:15;10.50;99.90
8172;DHT22;4127;47.908;10.850;2022-09-29T16:16:46;10.60;99.90
8172;DHT22;4127;47.908;10.850;2022-09-29T16:19:21;10.50;99.90
8172;DHT22;4127;47.908;10.850;2022-09-29T16:21:53;10.50;99.90
8172;DHT22;4127;47.908;10.850;2022-09-29T16:24:21;10.30;99.90
8172;DHT22;4127;47.908;10.850;2022-09-29T16:26:50;10.20;99.90
8172;DHT22;4127;47.908;10.850;2022-09-29T16:29:34;10.20;99.90
8172;DHT22;4127;47.908;10.850;2022-09-29T16:35:42;10.20;99.90
8172;DHT22;4127;47.908;10.850;2022-09-29T16:40:52;10.00;99.90
8172;DHT22;4127;47.908;10.850;2022-09-29T16:43:28;9.90;99.90
8172;DHT22;4127;47.908;10.850;2022-09-29T16:46:01;9.80;99.90
8172;DHT22;4127;47.908;10.850;2022-09-29T16:48:38;9.80;99.90
8172;DHT22;4127;47.908;10.850;2022-09-29T16:51:15;9.80;99.90
8172;DHT22;4127;47.908;10.850;2022-09-29T16:54:02;9.90;99.90
8172;DHT22;4127;47.908;10.850;2022-09-29T16:56:30;10.00;99.90
8172;DHT22;4127;47.908;10.850;2022-09-29T16:59:09;10.00;99.90
8172;DHT22;4127;47.908;10.850;2022-09-29T17:01:38;10.00;99.90
8172;DHT22;4127;47.908;10.850;2022-09-29T17:04:07;10.00;99.90
8172;DHT22;4127;47.908;10.850;2022-09-29T17:06:34;9.90;99.90
8172;DHT22;4127;47.908;10.850;2022-09-29T17:09:02;10.00;99.90
8172;DHT22;4127;47.908;10.850;2022-09-29T17:11:30;10.00;99.90
8172;DHT22;4127;47.908;10.850;2022-09-29T17:13:57;9.90;99.90
8172;DHT22;4127;47.908;10.850;2022-09-29T17:16:25;10.00;99.90
8172;DHT22;4127;47.908;10.850;2022-09-29T17:18:54;9.90;99.90
8172;DHT22;4127;47.908;10.850;2022-09-29T17:21:23;9.80;99.90
8172;DHT22;4127;47.908;10.850;2022-09-29T17:23:49;9.90;99.90
8172;DHT22;4127;47.908;10.850;2022-09-29T17:26:25;9.70;99.90
8172;DHT22;4127;47.908;10.850;2022-09-29T17:29:16;9.60;99.90
8172;DHT22;4127;47.908;10.850;2022-09-29T17:31:43;9.50;99.90
8172;DHT22;4127;47.908;10.850;2022-09-29T17:34:09;9.50;99.90
8172;DHT22;4127;47.908;10.850;2022-09-29T17:36:37;9.30;99.90
8172;DHT22;4127;47.908;10.850;2022-09-29T17:39:04;9.40;99.90
8172;DHT22;4127;47.908;10.850;2022-09-29T17:41:31;9.40;99.90
8172;DHT22;4127;47.908;10.850;2022-09-29T17:43:57;9.20;99.90
8172;DHT22;4127;47.908;10.850;2022-09-29T17:46:24;9.20;99.90
8172;DHT22;4127;47.908;10.850;2022-09-29T17:48:51;9.20;99.90
8172;DHT22;4127;47.908;10.850;2022-09-29T17:51:18;9.20;99.90
8172;DHT22;4127;47.908;10.850;2022-09-29T17:53:45;9.30;99.90
8172;DHT22;4127;47.908;10.850;2022-09-29T17:56:23;9.30;99.90
